Time;durP1;ratioP1;P1;durP2;ratioP2;P2;SDS_P1;SDS_P2;PMS_P1;PMS_P2;Temp;Humidity;BMP_temperature;BMP_pressure;BME280_temperature;BME280_humidity;BME280_pressure;Samples;Min_cycle;Max_cycle;Signal;HPM_P1;HPM_P2
2022/11/23 00:02:09;;;;;;;6.50;1.70;;;;;;;;;;5053156;28;20021;-76
2022/11/23 00:04:35;;;;;;;11.52;1.77;;;;;;;;;;5054768;28;20017;-76
2022/11/23 00:07:01;;;;;;;8.00;2.10;;;;;;;;;;5054638;28;20516;-77
2022/11/23 00:09:27;;;;;;;5.88;1.77;;;;;;;;;;5056090;28;20025;-76
2022/11/23 00:11:53;;;;;;;9.55;2.08;;;;;;;;;;5051384;28;20045;-77
2022/11/23 00:14:19;;;;;;;9.68;2.05;;;;;;;;;;5037760;28;20041;-76
2022/11/23 00:16:45;;;;;;;6.32;1.75;;;;;;;;;;5055702;28;20057;-76
2022/11/23 00:19:11;;;;;;;5.38;1.65;;;;;;;;;;5047041;28;20040;-75
2022/11/23 00:21:37;;;;;;;5.15;1.70;;;;;;;;;;5053771;28;20048;-75
2022/11/23 00:24:03;;;;;;;8.18;1.90;;;;;;;;;;5053213;28;20426;-76
2022/11/23 00:26:29;;;;;;;9.13;1.58;;;;;;;;;;5050641;28;20024;-76
2022/11/23 00:28:55;;;;;;;5.28;1.65;;;;;;;;;;5053236;28;20489;-77
2022/11/23 00:31:21;;;;;;;8.40;1.70;;;;;;;;;;5053380;28;20035;-75
2022/11/23 00:33:49;;;;;;;6.07;1.45;;;;;;;;;;5053994;28;20104;-76
2022/11/23 00:36:15;;;;;;;6.07;2.00;;;;;;;;;;5052719;28;20121;-76
2022/11/23 00:38:42;;;;;;;7.35;1.63;;;;;;;;;;5053789;28;20043;-75
2022/11/23 00:41:09;;;;;;;9.15;2.03;;;;;;;;;;5052241;28;20151;-77
2022/11/23 00:43:35;;;;;;;9.43;1.95;;;;;;;;;;5049841;28;20051;-77
2022/11/23 00:46:06;;;;;;;9.05;2.30;;;;;;;;;;5050251;28;20136;-76
2022/11/23 00:48:32;;;;;;;8.52;1.77;;;;;;;;;;5052613;28;20226;-76
2022/11/23 00:51:00;;;;;;;5.13;1.63;;;;;;;;;;5051815;28;20088;-76
2022/11/23 00:53:26;;;;;;;9.30;1.58;;;;;;;;;;5053187;28;20029;-75
2022/11/23 00:55:52;;;;;;;5.65;1.58;;;;;;;;;;5052069;28;20573;-76
2022/11/23 00:58:18;;;;;;;9.48;1.63;;;;;;;;;;5053058;28;20087;-76
2022/11/23 01:00:44;;;;;;;6.32;1.75;;;;;;;;;;5050694;28;20029;-76
2022/11/23 01:03:10;;;;;;;5.97;1.52;;;;;;;;;;5047942;28;20023;-75
2022/11/23 01:05:37;;;;;;;8.95;1.88;;;;;;;;;;5034196;28;20029;-76
2022/11/23 01:08:03;;;;;;;10.27;1.38;;;;;;;;;;5052361;28;20037;-75
2022/11/23 01:10:29;;;;;;;4.20;1.40;;;;;;;;;;5052403;28;20091;-75
2022/11/23 01:12:55;;;;;;;6.60;1.65;;;;;;;;;;5052442;28;20466;-75
2022/11/23 01:15:22;;;;;;;6.32;1.83;;;;;;;;;;5052546;28;20063;-75
2022/11/23 01:17:48;;;;;;;7.35;1.60;;;;;;;;;;5049321;28;20037;-75
2022/11/23 01:20:14;;;;;;;5.32;1.17;;;;;;;;;;5051673;28;20460;-76
2022/11/23 01:22:40;;;;;;;5.30;1.30;;;;;;;;;;5052693;28;20355;-75
2022/11/23 01:25:06;;;;;;;6.20;1.30;;;;;;;;;;5050971;28;20048;-75
2022/11/23 01:27:32;;;;;;;6.18;1.95;;;;;;;;;;5052554;28;20500;-75
2022/11/23 01:29:58;;;;;;;7.45;1.52;;;;;;;;;;5051483;28;20021;-74
2022/11/23 01:32:24;;;;;;;4.40;1.38;;;;;;;;;;5052247;28;20466;-75
2022/11/23 01:34:50;;;;;;;8.65;1.58;;;;;;;;;;5046934;28;20028;-76
2022/11/23 01:37:16;;;;;;;7.68;2.67;;;;;;;;;;5045095;28;20039;-75
2022/11/23 01:39:42;;;;;;;8.77;1.20;;;;;;;;;;5049691;28;20096;-75
2022/11/23 01:42:08;;;;;;;4.30;0.95;;;;;;;;;;5050429;28;20028;-76
2022/11/23 01:44:35;;;;;;;7.30;1.42;;;;;;;;;;5052020;28;20543;-76
2022/11/23 01:47:02;;;;;;;6.18;1.55;;;;;;;;;;5050569;28;20056;-76
2022/11/23 01:49:30;;;;;;;4.97;1.10;;;;;;;;;;5051518;28;20535;-75
2022/11/23 01:51:58;;;;;;;7.90;1.73;;;;;;;;;;5048003;28;20204;-75
2022/11/23 01:54:26;;;;;;;2.40;1.38;;;;;;;;;;5048250;28;20088;-75
2022/11/23 01:56:55;;;;;;;6.00;1.40;;;;;;;;;;5050921;28;20104;-77
2022/11/23 01:59:22;;;;;;;6.43;1.17;;;;;;;;;;5051539;28;20056;-74
2022/11/23 02:01:48;;;;;;;2.75;1.23;;;;;;;;;;5040804;28;20442;-74
2022/11/23 02:04:19;;;;;;;7.53;1.20;;;;;;;;;;5048356;28;20071;-75
2022/11/23 02:06:46;;;;;;;3.20;1.00;;;;;;;;;;5051552;28;20484;-75
2022/11/23 02:09:12;;;;;;;6.05;1.15;;;;;;;;;;5032846;28;20664;-75
2022/11/23 02:11:38;;;;;;;9.65;1.60;;;;;;;;;;5050130;28;20060;-75
2022/11/23 02:14:04;;;;;;;3.17;1.02;;;;;;;;;;5050455;28;20029;-74
2022/11/23 02:16:30;;;;;;;6.03;1.17;;;;;;;;;;5033250;28;20021;-75
2022/11/23 02:18:56;;;;;;;10.90;1.55;;;;;;;;;;5032681;28;20082;-76
2022/11/23 02:21:22;;;;;;;6.47;1.65;;;;;;;;;;5050591;28;20029;-75
2022/11/23 02:23:48;;;;;;;4.40;1.13;;;;;;;;;;5047817;28;20421;-74
2022/11/23 02:26:17;;;;;;;2.78;1.10;;;;;;;;;;5050019;28;20104;-74
2022/11/23 02:28:45;;;;;;;7.68;1.00;;;;;;;;;;5050802;28;20055;-75
2022/11/23 02:31:11;;;;;;;7.63;1.63;;;;;;;;;;5049845;28;20025;-74
2022/11/23 02:33:38;;;;;;;8.23;1.92;;;;;;;;;;5050833;28;20036;-74
2022/11/23 02:36:22;;;;;;;9.43;2.40;;;;;;;;;;5049744;28;20045;-75
2022/11/23 02:38:48;;;;;;;7.85;2.22;;;;;;;;;;5040048;28;20033;-75
2022/11/23 02:41:14;;;;;;;8.05;2.38;;;;;;;;;;5043432;28;20071;-75
2022/11/23 02:43:40;;;;;;;8.45;2.00;;;;;;;;;;5043355;28;20378;-76
2022/11/23 02:46:06;;;;;;;7.70;2.10;;;;;;;;;;5024392;28;20030;-75
2022/11/23 02:48:32;;;;;;;9.07;2.17;;;4.10;99.90;;;;;;5045099;28;20100;-76
2022/11/23 02:50:57;;;;;;;8.23;2.42;;;4.10;99.90;;;;;;5040072;28;20196;-75
2022/11/23 02:53:23;;;;;;;7.40;2.05;;;4.00;99.90;;;;;;5042005;28;20049;-74
2022/11/23 02:55:48;;;;;;;5.70;1.83;;;3.80;99.90;;;;;;5044128;28;20063;-75
2022/11/23 02:58:14;;;;;;;8.23;1.50;;;3.80;99.90;;;;;;5041283;28;20032;-76
2022/11/23 03:00:40;;;;;;;4.50;1.80;;;3.80;99.90;;;;;;5041393;28;20029;-75
2022/11/23 03:03:06;;;;;;;5.47;1.40;;;3.70;99.90;;;;;;5043403;28;20459;-76
2022/11/23 03:05:31;;;;;;;5.63;1.70;;;3.70;99.90;;;;;;5043848;28;20477;-77
2022/11/23 03:07:57;;;;;;;5.25;1.60;;;3.80;99.90;;;;;;5042847;28;20036;-76
2022/11/23 03:10:22;;;;;;;6.80;1.70;;;3.80;99.90;;;;;;5039784;28;20028;-75
2022/11/23 03:12:48;;;;;;;7.13;1.88;;;3.90;99.90;;;;;;5026371;28;20112;-76
2022/11/23 03:15:14;;;;;;;6.85;2.58;;;4.00;99.90;;;;;;5044914;28;20028;-76
2022/11/23 03:17:39;;;;;;;7.00;2.53;;;4.00;99.90;;;;;;5047864;28;20029;-76
2022/11/23 03:20:05;;;;;;;15.30;2.40;;;4.00;99.90;;;;;;5044680;28;20421;-75
2022/11/23 03:22:32;;;;;;;7.13;2.30;;;3.90;99.90;;;;;;5047690;28;20477;-75
2022/11/23 03:24:58;;;;;;;8.15;2.47;;;3.70;99.90;;;;;;5046785;28;20025;-76
2022/11/23 03:27:23;;;;;;;7.88;2.20;;;3.40;99.90;;;;;;5044050;28;20362;-76
2022/11/23 03:29:49;;;;;;;4.15;1.85;;;3.30;99.90;;;;;;5053802;28;20071;-75
2022/11/23 03:32:14;;;;;;;6.25;2.25;;;3.20;99.90;;;;;;5052773;28;20032;-75
2022/11/23 03:34:40;;;;;;;7.85;2.35;;;3.10;99.90;;;;;;5049845;28;20021;-75
2022/11/23 03:37:06;;;;;;;8.18;2.20;;;2.90;99.90;;;;;;5053344;28;20098;-75
2022/11/23 03:39:34;;;;;;;7.97;2.05;;;2.80;99.90;;;;;;5047080;28;20025;-75
2022/11/23 03:41:59;;;;;;;9.23;2.05;;;2.80;99.90;;;;;;5053325;28;20029;-76
2022/11/23 03:44:25;;;;;;;5.15;2.30;;;2.70;99.90;;;;;;5054266;28;20114;-76
2022/11/23 03:46:50;;;;;;;7.57;2.30;;;2.70;99.90;;;;;;5053379;28;20049;-76
2022/11/23 03:49:16;;;;;;;7.32;2.33;;;2.70;99.90;;;;;;5053187;28;20414;-74
2022/11/23 03:51:42;;;;;;;8.90;2.97;;;2.70;99.90;;;;;;5033098;28;20029;-76
2022/11/23 03:54:07;;;;;;;5.15;2.42;;;2.70;99.90;;;;;;5054044;28;20108;-77
2022/11/23 03:56:33;;;;;;;8.00;2.97;;;2.70;99.90;;;;;;5053962;28;20088;-75
2022/11/23 03:58:59;;;;;;;8.43;2.70;;;2.70;99.90;;;;;;5053722;28;20397;-76
2022/11/23 04:01:25;;;;;;;8.75;2.25;;;2.80;99.90;;;;;;5054158;28;20082;-76
2022/11/23 04:03:51;;;;;;;10.27;2.40;;;2.80;99.90;;;;;;5048261;28;20035;-77
2022/11/23 04:06:16;;;;;;;8.95;2.85;;;2.90;99.90;;;;;;5053290;28;20036;-76
2022/11/23 04:08:42;;;;;;;5.43;1.90;;;2.90;99.90;;;;;;5053927;28;20037;-77
2022/11/23 04:11:07;;;;;;;6.35;2.10;;;3.00;99.90;;;;;;5052307;28;20053;-76
2022/11/23 04:13:33;;;;;;;7.45;2.25;;;3.00;99.90;;;;;;5044085;28;20030;-78
2022/11/23 04:15:58;;;;;;;9.55;2.08;;;3.10;99.90;;;;;;5055926;28;20033;-77
2022/11/23 04:18:24;;;;;;;10.65;3.63;;;3.10;99.90;;;;;;5050239;28;20076;-77
2022/11/23 04:20:49;;;;;;;6.50;2.17;;;3.20;99.90;;;;;;5055844;28;20032;-77
2022/11/23 04:23:15;;;;;;;11.45;2.22;;;3.20;99.90;;;;;;5038431;28;20080;-76
2022/11/23 04:25:41;;;;;;;5.63;1.77;;;3.20;99.90;;;;;;5059950;28;20037;-76
2022/11/23 04:28:06;;;;;;;6.80;1.90;;;3.40;99.90;;;;;;5059389;28;20115;-75
2022/11/23 04:30:32;;;;;;;11.95;2.17;;;3.40;99.90;;;;;;5055975;28;20063;-76
2022/11/23 04:32:57;;;;;;;9.73;2.70;;;3.60;99.90;;;;;;5052332;28;20105;-74
2022/11/23 04:35:23;;;;;;;6.25;1.75;;;3.60;99.90;;;;;;5052752;28;20355;-76
2022/11/23 04:37:48;;;;;;;3.85;1.45;;;3.60;99.90;;;;;;5053399;28;20028;-74
2022/11/23 04:40:14;;;;;;;5.78;1.63;;;3.70;99.90;;;;;;5050823;28;20032;-75
2022/11/23 04:42:40;;;;;;;3.38;1.55;;;3.70;99.90;;;;;;5052618;28;20112;-75
2022/11/23 04:45:06;;;;;;;5.53;1.55;;;3.60;99.90;;;;;;5051859;28;20028;-74
2022/11/23 04:47:31;;;;;;;7.53;1.92;;;3.40;99.90;;;;;;5052881;28;20436;-74
2022/11/23 04:49:57;;;;;;;6.45;1.95;;;3.40;99.90;;;;;;5046020;28;20104;-75
2022/11/23 04:52:23;;;;;;;5.63;2.20;;;3.30;99.90;;;;;;5052342;28;20032;-74
2022/11/23 04:54:48;;;;;;;7.55;1.80;;;3.30;99.90;;;;;;5052924;28;20147;-75
2022/11/23 04:57:14;;;;;;;9.85;1.95;;;3.20;99.90;;;;;;5052093;28;20430;-75
2022/11/23 04:59:40;;;;;;;5.82;1.40;;;3.20;99.90;;;;;;5053037;28;20032;-75
2022/11/23 05:02:05;;;;;;;7.57;1.77;;;3.10;99.90;;;;;;5033848;28;20036;-75
2022/11/23 05:04:33;;;;;;;4.70;1.90;;;3.00;99.90;;;;;;5051853;28;20125;-75
2022/11/23 05:06:58;;;;;;;7.82;2.05;;;2.90;99.90;;;;;;5049058;28;20116;-75
2022/11/23 05:09:24;;;;;;;9.05;2.25;;;2.90;99.90;;;;;;5052812;28;20482;-75
2022/11/23 05:11:50;;;;;;;5.30;2.30;;;2.90;99.90;;;;;;5051907;28;20037;-74
2022/11/23 05:14:15;;;;;;;6.30;2.15;;;2.80;99.90;;;;;;5033802;28;20031;-73
2022/11/23 05:16:41;;;;;;;7.82;2.58;;;2.70;99.90;;;;;;5052186;28;20104;-74
2022/11/23 05:19:06;;;;;;;6.90;2.78;;;2.70;99.90;;;;;;5051839;28;20458;-74
2022/11/23 05:21:32;;;;;;;8.40;2.75;;;2.70;99.90;;;;;;5052392;28;20075;-75
2022/11/23 05:23:58;;;;;;;16.10;3.10;;;2.60;99.90;;;;;;5047080;28;20025;-75
2022/11/23 05:26:23;;;;;;;8.38;2.85;;;2.60;99.90;;;;;;5052145;28;20025;-75
2022/11/23 05:28:49;;;;;;;7.15;2.53;;;2.70;99.90;;;;;;5049047;28;20029;-75
2022/11/23 05:31:14;;;;;;;6.97;2.97;;;2.70;99.90;;;;;;5051131;28;20037;-75
2022/11/23 05:33:40;;;;;;;9.82;2.90;;;2.80;99.90;;;;;;5052060;28;20068;-73
2022/11/23 05:36:06;;;;;;;9.45;2.70;;;2.90;99.90;;;;;;5050534;28;20021;-75
2022/11/23 05:38:31;;;;;;;3.20;1.75;;;2.90;99.90;;;;;;5052157;28;20077;-73
2022/11/23 05:40:57;;;;;;;6.15;2.10;;;3.00;99.90;;;;;;5044963;28;20033;-74
2022/11/23 05:43:22;;;;;;;5.97;2.17;;;3.00;99.90;;;;;;5056029;28;20454;-73
2022/11/23 05:45:48;;;;;;;13.27;3.42;;;3.00;99.90;;;;;;5054802;28;20025;-73
2022/11/23 05:48:14;;;;;;;5.63;1.70;;;3.00;99.90;;;;;;5050852;28;20044;-74
2022/11/23 05:50:39;;;;;;;5.18;1.67;;;3.00;99.90;;;;;;5051465;28;20374;-75
2022/11/23 05:53:05;;;;;;;7.40;1.77;;;3.00;99.90;;;;;;5051318;28;20211;-73
2022/11/23 05:55:31;;;;;;;6.25;1.90;;;3.00;99.90;;;;;;5033265;28;20410;-73
2022/11/23 05:57:57;;;;;;;11.10;2.25;;;3.10;99.90;;;;;;5050653;28;20150;-73
2022/11/23 06:00:22;;;;;;;5.45;1.80;;;3.10;99.90;;;;;;5050747;28;20025;-73
2022/11/23 06:02:51;;;;;;;9.98;2.00;;;3.20;99.90;;;;;;5051670;28;20032;-74
2022/11/23 06:05:17;;;;;;;7.38;2.10;;;3.20;99.90;;;;;;5046227;28;20489;-74
2022/11/23 06:07:42;;;;;;;6.60;1.67;;;3.20;99.90;;;;;;5033415;28;20071;-75
2022/11/23 06:10:08;;;;;;;15.52;2.58;;;3.30;99.90;;;;;;5049806;28;20017;-72
2022/11/23 06:12:34;;;;;;;6.68;1.85;;;3.30;99.90;;;;;;5047936;28;20053;-76
2022/11/23 06:14:59;;;;;;;8.35;2.20;;;3.40;99.90;;;;;;5049990;28;20385;-77
2022/11/23 06:17:25;;;;;;;11.68;2.25;;;3.40;99.90;;;;;;5046807;28;20095;-75
2022/11/23 06:19:50;;;;;;;7.30;2.38;;;3.50;99.90;;;;;;5051014;28;20425;-75
2022/11/23 06:22:16;;;;;;;5.57;2.10;;;3.50;99.90;;;;;;5032889;28;20033;-74
2022/11/23 06:24:42;;;;;;;9.20;2.67;;;3.60;99.90;;;;;;5051484;28;20161;-75
2022/11/23 06:27:08;;;;;;;9.38;2.28;;;3.70;99.90;;;;;;5050160;28;20401;-75
2022/11/23 06:29:34;;;;;;;6.20;2.40;;;3.70;99.90;;;;;;5051319;28;20394;-75
2022/11/23 06:31:59;;;;;;;5.82;2.47;;;3.70;99.90;;;;;;5049896;28;20029;-74
2022/11/23 06:34:25;;;;;;;7.65;2.80;;;3.60;99.90;;;;;;5051626;28;20029;-74
2022/11/23 06:36:51;;;;;;;6.05;2.65;;;3.60;99.90;;;;;;5050895;28;20104;-74
2022/11/23 06:39:17;;;;;;;7.65;2.35;;;3.60;99.90;;;;;;5046325;28;20033;-76
2022/11/23 06:41:43;;;;;;;6.85;2.40;;;3.50;99.90;;;;;;5052770;28;20061;-77
2022/11/23 06:44:08;;;;;;;9.27;2.85;;;3.50;99.90;;;;;;5050213;28;20056;-74
2022/11/23 06:46:34;;;;;;;7.47;2.53;;;3.30;99.90;;;;;;5050480;28;20036;-73
2022/11/23 06:48:59;;;;;;;7.45;3.28;;;3.20;99.90;;;;;;5050408;28;20032;-76
2022/11/23 06:51:25;;;;;;;9.93;3.42;;;3.10;99.90;;;;;;5050872;28;20067;-75
2022/11/23 06:53:51;;;;;;;8.50;3.60;;;3.00;99.90;;;;;;5051442;28;20028;-75
2022/11/23 06:56:16;;;;;;;8.07;2.85;;;2.90;99.90;;;;;;5044777;28;20027;-75
2022/11/23 06:58:42;;;;;;;5.40;2.35;;;2.90;99.90;;;;;;5051808;28;20052;-77
2022/11/23 07:01:09;;;;;;;5.97;2.70;;;2.70;99.90;;;;;;5050302;28;20060;-82
2022/11/23 07:03:34;;;;;;;9.93;2.40;;;2.60;99.90;;;;;;5057131;28;20045;-77
2022/11/23 07:06:08;;;;;;;5.60;2.42;;;2.60;99.90;;;;;;5043298;28;20072;-74
2022/11/23 07:08:35;;;;;;;6.00;2.50;;;2.50;99.90;;;;;;5050441;28;20174;-74
2022/11/23 07:11:02;;;;;;;8.07;2.88;;;2.40;99.90;;;;;;5044523;28;20053;-76
2022/11/23 07:13:28;;;;;;;6.72;3.03;;;2.40;99.90;;;;;;5041269;28;20025;-76
2022/11/23 07:15:53;;;;;;;14.90;5.15;;;2.40;99.90;;;;;;5049605;28;20100;-75
2022/11/23 07:18:19;;;;;;;8.88;4.13;;;2.40;99.90;;;;;;5043894;28;20026;-75
2022/11/23 07:20:44;;;;;;;10.75;3.85;;;2.40;99.90;;;;;;5027487;28;20096;-75
2022/11/23 07:23:13;;;;;;;11.98;3.65;;;2.40;99.90;;;;;;5049815;28;20593;-76
2022/11/23 07:25:39;;;;;;;13.10;3.72;;;2.40;99.90;;;;;;5049373;28;20036;-74
2022/11/23 07:28:06;;;;;;;6.63;3.30;;;2.50;99.90;;;;;;5050055;28;20037;-75
2022/11/23 07:30:34;;;;;;;11.20;4.05;;;2.40;99.90;;;;;;5050635;28;20037;-76
2022/11/23 07:33:04;;;;;;;8.93;3.10;;;2.40;99.90;;;;;;5044356;28;20048;-78
2022/11/23 07:35:31;;;;;;;9.20;3.50;;;2.40;99.90;;;;;;5051154;28;20100;-76
2022/11/23 07:37:58;;;;;;;8.80;3.13;;;2.30;99.90;;;;;;5051094;28;20033;-75
2022/11/23 07:40:23;;;;;;;11.73;3.13;;;2.30;99.90;;;;;;5048300;28;20049;-76
2022/11/23 07:42:49;;;;;;;9.18;2.80;;;2.20;99.90;;;;;;5050860;28;20056;-75
2022/11/23 07:45:14;;;;;;;14.50;4.93;;;2.20;99.90;;;;;;5050405;28;20737;-75
2022/11/23 07:47:40;;;;;;;18.67;5.32;;;2.20;99.90;;;;;;5050781;28;20043;-76
2022/11/23 07:50:07;;;;;;;12.07;5.18;;;2.20;99.90;;;;;;5049594;28;20036;-75
2022/11/23 07:52:34;;;;;;;17.50;6.15;;;2.30;99.90;;;;;;5050740;28;20022;-76
2022/11/23 07:55:00;;;;;;;19.77;6.07;;;2.30;99.90;;;;;;5039825;28;20025;-75
2022/11/23 07:57:26;;;;;;;18.48;5.15;;;2.40;99.90;;;;;;5049079;28;20025;-76
2022/11/23 07:59:52;;;;;;;17.88;8.23;;;2.40;99.90;;;;;;5052164;28;20433;-73
2022/11/23 08:02:17;;;;;;;22.83;9.18;;;2.50;99.90;;;;;;5052822;28;20107;-76
2022/11/23 08:04:43;;;;;;;10.77;4.97;;;2.60;99.90;;;;;;5053465;28;20412;-75
2022/11/23 08:07:08;;;;;;;9.63;3.10;;;2.70;99.90;;;;;;5046326;28;20045;-76
2022/11/23 08:09:34;;;;;;;10.05;3.33;;;2.80;99.90;;;;;;5049784;28;20053;-76
2022/11/23 08:12:06;;;;;;;14.15;4.78;;;2.90;99.90;;;;;;5054116;28;20049;-78
2022/11/23 08:14:37;;;;;;;6.13;3.17;;;3.00;99.90;;;;;;5054485;28;20039;-76
2022/11/23 08:17:03;;;;;;;7.53;3.78;;;3.10;99.90;;;;;;5052812;28;20041;-76
2022/11/23 08:19:29;;;;;;;7.72;3.17;;;3.20;99.90;;;;;;5036124;28;20095;-76
2022/11/23 08:21:54;;;;;;;15.18;3.65;;;3.30;99.90;;;;;;5053170;28;20457;-75
2022/11/23 08:24:20;;;;;;;8.00;3.05;;;3.40;99.90;;;;;;5052589;28;20081;-76
2022/11/23 08:26:46;;;;;;;4.90;2.30;;;3.50;99.90;;;;;;5054240;28;20385;-77
2022/11/23 08:29:11;;;;;;;7.75;2.38;;;3.60;99.90;;;;;;5036903;28;20029;-76
2022/11/23 08:31:37;;;;;;;5.82;3.80;;;3.70;99.90;;;;;;5056879;28;20040;-76
2022/11/23 08:34:02;;;;;;;10.52;3.53;;;3.70;99.90;;;;;;5057726;28;20032;-76
2022/11/23 08:36:28;;;;;;;6.30;3.25;;;3.80;99.90;;;;;;5058288;28;20091;-77
2022/11/23 08:38:53;;;;;;;6.93;3.25;;;3.90;99.90;;;;;;5057130;28;20033;-74
2022/11/23 08:41:19;;;;;;;8.82;3.13;;;3.90;99.90;;;;;;5058744;28;20470;-74
2022/11/23 08:43:49;;;;;;;14.68;3.97;;;4.10;99.90;;;;;;5058009;28;20029;-77
2022/11/23 08:46:15;;;;;;;10.05;3.03;;;4.20;99.90;;;;;;5054077;28;20028;-76
2022/11/23 08:48:41;;;;;;;9.77;2.67;;;4.30;99.90;;;;;;5048535;28;20052;-76
2022/11/23 08:51:06;;;;;;;9.32;3.30;;;4.30;99.90;;;;;;5047933;28;20029;-75
2022/11/23 08:53:32;;;;;;;10.77;2.72;;;4.40;99.90;;;;;;5050358;28;20033;-75
2022/11/23 08:56:03;;;;;;;10.90;3.30;;;4.50;99.90;;;;;;5048559;28;20037;-75
2022/11/23 08:58:29;;;;;;;10.18;2.55;;;4.60;99.90;;;;;;5047805;28;20031;-75
2022/11/23 09:00:55;;;;;;;6.85;2.20;;;4.70;99.90;;;;;;5047707;28;21367;-75
2022/11/23 09:03:20;;;;;;;7.38;2.35;;;4.80;99.90;;;;;;5029196;28;20282;-76
2022/11/23 09:05:46;;;;;;;6.97;3.25;;;4.90;99.90;;;;;;5051666;28;20029;-76
2022/11/23 09:08:12;;;;;;;9.48;3.45;;;5.00;99.90;;;;;;5050711;28;20037;-75
2022/11/23 09:10:38;;;;;;;9.75;5.22;;;5.00;99.90;;;;;;5050761;28;20068;-75
2022/11/23 09:13:04;;;;;;;13.15;4.32;;;5.10;99.90;;;;;;5050747;28;20150;-76
2022/11/23 09:15:29;;;;;;;14.05;3.95;;;5.20;99.90;;;;;;5052031;28;20025;-75
2022/11/23 09:17:56;;;;;;;10.63;2.90;;;5.30;99.90;;;;;;5051026;28;20029;-76
2022/11/23 09:20:22;;;;;;;10.70;2.65;;;5.40;99.90;;;;;;5033535;28;20037;-76
2022/11/23 09:22:52;;;;;;;9.45;2.40;;;5.60;99.90;;;;;;5051607;28;20374;-74
2022/11/23 09:25:18;;;;;;;8.68;2.25;;;5.60;99.90;;;;;;5049045;28;20021;-75
2022/11/23 09:27:44;;;;;;;8.05;3.10;;;5.80;99.90;;;;;;5051704;28;20486;-76
2022/11/23 09:30:11;;;;;;;7.43;2.65;;;5.90;99.90;;;;;;5050274;28;20524;-77
2022/11/23 09:32:36;;;;;;;7.78;2.38;;;5.90;99.90;;;;;;5051391;28;20389;-76
2022/11/23 09:35:02;;;;;;;8.75;2.38;;;6.00;99.90;;;;;;5050435;28;20040;-76
2022/11/23 09:37:28;;;;;;;9.75;2.50;;;6.10;99.90;;;;;;5051629;28;20112;-77
2022/11/23 09:39:53;;;;;;;9.27;2.88;;;6.20;99.90;;;;;;5049163;28;20035;-75
2022/11/23 09:42:38;;;;;;;12.55;2.97;;;6.30;99.90;;;;;;5050459;28;20067;-76
2022/11/23 09:45:03;;;;;;;11.65;2.42;;;6.30;99.90;;;;;;5050518;28;20033;-76
2022/11/23 09:47:48;;;;;;;11.07;2.60;;;6.50;99.90;;;;;;5050431;28;20040;-76
2022/11/23 09:50:53;;;;;;;4.05;1.80;;;6.60;99.90;;;;;;5049851;28;20364;-77
2022/11/23 09:53:23;;;;;;;8.73;2.00;;;6.60;99.90;;;;;;5017153;28;20052;-75
2022/11/23 09:55:52;;;;;;;8.10;2.13;;;6.70;99.90;;;;;;5045388;28;20036;-77
2022/11/23 09:58:21;;;;;;;7.15;2.22;;;6.70;99.90;;;;;;5051166;28;20037;-77
2022/11/23 10:01:02;;;;;;;8.63;2.05;;;6.90;99.90;;;;;;5045377;28;20527;-77
2022/11/23 10:03:31;;;;;;;5.88;1.73;;;7.00;99.90;;;;;;5050693;28;20020;-76
2022/11/23 10:06:14;;;;;;;6.43;2.13;;;7.00;99.90;;;;;;5048553;28;20381;-76
2022/11/23 10:09:07;;;;;;;6.85;1.67;;;7.10;99.90;;;;;;5045040;28;20122;-76
2022/11/23 10:11:48;;;;;;;5.43;1.27;;;7.20;99.90;;;;;;5048526;28;20490;-76
2022/11/23 10:14:22;;;;;;;;;;;7.30;99.90;;;;;;5050726;28;20426;-76
2022/11/23 10:17:13;;;;;;;8.02;1.65;;;7.40;99.90;;;;;;5050077;28;19916;-76
2022/11/23 10:20:16;;;;;;;5.95;1.63;;;7.60;99.90;;;;;;5041975;28;20098;-75
2022/11/23 10:23:03;;;;;;;7.68;2.00;;;7.70;99.90;;;;;;5047332;28;20037;-76
2022/11/23 10:25:38;;;;;;;8.80;2.35;;;7.80;99.90;;;;;;5048320;28;20062;-75
2022/11/23 10:28:12;;;;;;;5.65;2.03;;;7.90;99.90;;;;;;5049114;28;20075;-76
2022/11/23 10:30:38;;;;;;;8.98;2.20;;;8.00;99.90;;;;;;5049816;28;20063;-75
2022/11/23 10:33:27;;;;;;;4.82;1.77;;;8.10;99.90;;;;;;5050460;28;20033;-75
2022/11/23 10:35:53;;;;;;;9.63;1.75;;;8.20;99.90;;;;;;5050187;28;20066;-75
2022/11/23 10:38:20;;;;;;;5.75;1.75;;;8.30;99.90;;;;;;5049942;28;20124;-73
2022/11/23 10:40:59;;;;;;;6.47;1.70;;;8.30;99.90;;;;;;5044057;28;20033;-76
2022/11/23 10:43:32;;;;;;;9.88;1.67;;;8.30;99.90;;;;;;5049952;28;20025;-76
2022/11/23 10:46:34;;;;;;;4.95;1.65;;;8.40;99.90;;;;;;5031160;28;20040;-75
2022/11/23 10:49:16;;;;;;;13.63;2.03;;;8.40;99.90;;;;;;4981786;28;20042;-76
2022/11/23 10:51:54;;;;;;;7.60;2.22;;;8.50;99.90;;;;;;5040885;28;20068;-74
2022/11/23 10:54:33;;;;;;;5.93;2.03;;;8.60;99.90;;;;;;5045379;28;20029;-75
2022/11/23 10:57:00;;;;;;;11.45;2.33;;;8.60;99.90;;;;;;5049043;28;20028;-75
2022/11/23 10:59:27;;;;;;;6.10;1.88;;;8.70;99.90;;;;;;5049237;28;20370;-76
2022/11/23 11:02:20;;;;;;;8.23;2.72;;;8.70;99.90;;;;;;5049034;28;20029;-74
2022/11/23 11:04:48;;;;;;;6.28;2.28;;;8.90;99.90;;;;;;5041719;28;20041;-75
2022/11/23 11:07:30;;;;;;;6.20;2.55;;;8.90;99.90;;;;;;5048259;28;20466;-75
2022/11/23 11:10:01;;;;;;;3.75;1.85;;;8.90;99.90;;;;;;5045728;28;20497;-74
2022/11/23 11:12:31;;;;;;;7.20;2.10;;;8.90;99.90;;;;;;5049262;28;20045;-75
2022/11/23 11:15:10;;;;;;;5.55;1.88;;;8.90;99.90;;;;;;5049014;28;20366;-75
2022/11/23 11:17:38;;;;;;;10.75;2.42;;;8.90;99.90;;;;;;5050221;28;20478;-76
2022/11/23 11:20:32;;;;;;;10.07;2.35;;;8.90;99.90;;;;;;5047044;28;20037;-77
2022/11/23 11:23:05;;;;;;;11.43;3.42;;;9.00;99.90;;;;;;5044215;28;20021;-74
2022/11/23 11:25:39;;;;;;;8.05;2.50;;;9.00;99.90;;;;;;5045378;28;20036;-77
2022/11/23 11:28:20;;;;;;;6.35;1.92;;;9.00;99.90;;;;;;5046122;28;20052;-76
2022/11/23 11:31:02;;;;;;;5.93;2.08;;;9.10;99.90;;;;;;5042270;28;20029;-76
2022/11/23 11:33:50;;;;;;;5.78;1.90;;;9.10;99.90;;;;;;5048380;28;20044;-75
2022/11/23 11:36:17;;;;;;;6.72;2.20;;;9.20;99.90;;;;;;5050972;28;20041;-77
2022/11/23 11:38:47;;;;;;;3.72;1.90;;;9.10;99.90;;;;;;5050004;28;20112;-77
2022/11/23 11:41:16;;;;;;;6.47;2.25;;;9.20;99.90;;;;;;5049922;28;20040;-76
2022/11/23 11:44:18;;;;;;;6.07;2.17;;;9.20;99.90;;;;;;5039449;28;20044;-76
2022/11/23 11:46:55;;;;;;;6.75;2.30;;;9.30;99.90;;;;;;5038561;28;20040;-77
2022/11/23 11:49:27;;;;;;;4.68;1.65;;;9.30;99.90;;;;;;5053386;28;20075;-75
2022/11/23 11:52:04;;;;;;;4.13;1.85;;;9.30;99.90;;;;;;5053123;28;20052;-75
2022/11/23 11:54:44;;;;;;;5.93;1.27;;;9.30;99.90;;;;;;5054285;28;20029;-76
2022/11/23 11:57:29;;;;;;;5.60;2.20;;;9.30;99.90;;;;;;5051680;28;20971;-75
2022/11/23 12:00:01;;;;;;;4.80;1.85;;;9.40;99.90;;;;;;5045389;28;20059;-73
2022/11/23 12:02:58;;;;;;;4.97;2.85;;;9.40;99.90;;;;;;5054150;28;20035;-80
2022/11/23 12:05:29;;;;;;;7.97;1.83;;;9.30;99.90;;;;;;5052732;28;20462;-78
2022/11/23 12:08:04;;;;;;;4.65;1.73;;;9.30;99.90;;;;;;5053298;28;20061;-75
2022/11/23 12:10:51;;;;;;;4.10;1.58;;;9.30;99.90;;;;;;5052572;28;20399;-80
2022/11/23 12:13:23;;;;;;;3.45;1.58;;;9.30;99.90;;;;;;5053399;28;20029;-79
2022/11/23 12:16:06;;;;;;;4.78;1.77;;;9.30;99.90;;;;;;5045118;28;20112;-80
2022/11/23 12:19:02;;;;;;;3.40;1.52;;;9.40;99.90;;;;;;5052497;28;20136;-79
2022/11/23 12:21:42;;;;;;;4.70;1.60;;;9.30;99.90;;;;;;5050573;28;20029;-80
2022/11/23 12:24:17;;;;;;;5.50;1.60;;;9.40;99.90;;;;;;5050913;28;20048;-76
2022/11/23 12:26:58;;;;;;;4.57;1.88;;;9.40;99.90;;;;;;5052188;28;20033;-79
2022/11/23 12:29:44;;;;;;;4.50;1.17;;;9.40;99.90;;;;;;5053283;28;20029;-79
2022/11/23 12:32:24;;;;;;;3.30;1.27;;;9.50;99.90;;;;;;5051535;28;20624;-79
2022/11/23 12:35:11;;;;;;;3.38;1.27;;;9.50;99.90;;;;;;5052759;28;20037;-75
2022/11/23 12:37:58;;;;;;;4.68;1.00;;;9.50;99.90;;;;;;5053177;28;20109;-80
2022/11/23 12:41:00;;;;;;;7.25;1.15;;;9.50;99.90;;;;;;5051941;28;20458;-80
2022/11/23 12:43:34;;;;;;;5.32;1.95;;;9.40;99.90;;;;;;5051319;28;20031;-78
2022/11/23 12:46:16;;;;;;;5.40;2.25;;;9.50;99.90;;;;;;5049708;28;20025;-78
2022/11/23 12:48:54;;;;;;;3.97;1.40;;;9.50;99.90;;;;;;5052454;28;20535;-79
2022/11/23 12:51:22;;;;;;;3.38;1.80;;;9.60;99.90;;;;;;5049149;28;20104;-78
2022/11/23 12:54:23;;;;;;;5.43;1.45;;;9.50;99.90;;;;;;5052850;28;20358;-79
2022/11/23 12:57:11;;;;;;;2.50;1.17;;;9.50;99.90;;;;;;5050342;28;20132;-80
2022/11/23 13:00:01;;;;;;;4.72;1.15;;;9.60;99.90;;;;;;5052357;28;20029;-77
2022/11/23 13:02:55;;;;;;;9.73;3.00;;;9.60;99.90;;;;;;5052495;28;20025;-78
2022/11/23 13:05:20;;;;;;;5.63;1.20;;;9.60;99.90;;;;;;5051439;28;20028;-80
2022/11/23 13:08:13;;;;;;;4.90;1.30;;;9.60;99.90;;;;;;5052383;28;20405;-78
2022/11/23 13:10:56;;;;;;;2.22;0.93;;;9.50;99.90;;;;;;5049784;28;20036;-80
2022/11/23 13:14:02;;;;;;;2.97;1.08;;;9.50;99.90;;;;;;5050906;28;20462;-79
2022/11/23 13:16:59;;;;;;;1.38;0.90;;;9.50;99.90;;;;;;5010522;28;20497;-79
2022/11/23 13:19:38;;;;;;;4.28;0.80;;;9.50;99.90;;;;;;5052265;28;20472;-81
2022/11/23 13:22:09;;;;;;;3.92;1.05;;;9.50;99.90;;;;;;5051684;28;20028;-80
2022/11/23 13:24:38;;;;;;;1.85;0.95;;;9.50;99.90;;;;;;5052194;28;20021;-79
2022/11/23 13:27:13;;;;;;;3.78;1.20;;;9.50;99.90;;;;;;5051018;28;20043;-81
2022/11/23 13:29:49;;;;;;;3.22;1.05;;;9.40;99.90;;;;;;5047976;28;20040;-82